Aérodrome :
LOGIN :

S'inscrire | Disclaimer

   EN    FR    IT 

 










Légende :    VFR   VFR Marginal   IFR   IFR Intensif   IFR Très Intensif
Visi : 
Plafond : 
>= 8 km
>= 3000ft
5 à 8 km
1000 à 3000 ft
1500m à 5 km
500 à 1000 ft
800 à 1500m
200 à 500 ft
< 800m
< 200 ft
Symboles :   Orages  Brouillard  Fortes neiges  Fortes précipitations  Vent > 20 kt
SIGMETs :   Divers  Orages  Givrage  Turbulence  Onde Orograph.  Cendres Volcan.







- Altitude de l'aérodrome : 39 ft
- Code IATA : TRS


LIPQ - Friuli Venezia Giulia Apt. Trieste

DERNIER METAR :
  • 220550Z 34003KT 3000 BR SCT015 BKN030 07/05 Q1019

METARs EXPIRÉS :
  • 220520Z 35003KT 3000 BR SCT015 BKN030 06/05 Q1019
  • 220450Z AUTO 01003KT 5000 BR FEW021/// OVC032/// 06/05 Q1019
  • 220420Z AUTO 35003KT 4900 BR OVC020/// 06/05 Q1019
  • 220350Z AUTO 36002KT 4800 BR BKN021/// OVC030/// 06/05 Q1019
  • 220320Z AUTO 36002KT 4800 BR OVC018/// 06/05 Q1019

TAF TAF LIPQ
Valide du 22 à 06h jusqu'au 23 à 06h UTC


220500Z 2206/2306 VRB05KT 4000 BR BKN010
BECMG 2209/2211 7000
BECMG 2220/2222 3000 BR
TEMPO 2300/2306 0500 FG OVC002
Pas de NOTAMs connus pour ce terrain.



MET'MAP, la Météo Aéronautique d'un coup d'oeil ! - Copyright ORBIFLY Décembre 2007 - Disclaimer

ORBIFLY MET'MAP TEAM :

Programmation & Développement : Alexandra Zaïnal
Conception & Développement : Baudouin d'Aumeries
Co-Programmation & Développement : Marc-Olivier Méhu
Soutien technique & logistique : Manuel Goepfert

Contact : metmap@orbifly.com




SOURCES & CREDITS :

   NOAA